sensor_id;sensor_type;location;lat;lon;timestamp;P1;durP1;ratioP1;P2;durP2;ratioP2
2866;SDS011;1441;48.886;8.728;2023-10-13T00:00:26;8.23;;;4.40;;
2866;SDS011;1441;48.886;8.728;2023-10-13T00:02:55;6.13;;;4.00;;
2866;SDS011;1441;48.886;8.728;2023-10-13T00:05:25;12.40;;;5.07;;
2866;SDS011;1441;48.886;8.728;2023-10-13T00:07:55;6.47;;;3.80;;
2866;SDS011;1441;48.886;8.728;2023-10-13T00:10:22;10.10;;;4.03;;
2866;SDS011;1441;48.886;8.728;2023-10-13T00:12:47;6.23;;;4.03;;
2866;SDS011;1441;48.886;8.728;2023-10-13T00:15:17;6.53;;;3.97;;
2866;SDS011;1441;48.886;8.728;2023-10-13T00:17:42;9.03;;;4.23;;
2866;SDS011;1441;48.886;8.728;2023-10-13T00:20:08;4.93;;;3.70;;
2866;SDS011;1441;48.886;8.728;2023-10-13T00:22:58;12.63;;;4.63;;
2866;SDS011;1441;48.886;8.728;2023-10-13T00:25:24;8.83;;;4.27;;
2866;SDS011;1441;48.886;8.728;2023-10-13T00:27:56;4.93;;;3.27;;
2866;SDS011;1441;48.886;8.728;2023-10-13T00:30:22;7.23;;;3.70;;
2866;SDS011;1441;48.886;8.728;2023-10-13T00:32:58;8.87;;;3.80;;
2866;SDS011;1441;48.886;8.728;2023-10-13T00:35:26;8.83;;;4.30;;
2866;SDS011;1441;48.886;8.728;2023-10-13T00:38:02;6.57;;;4.03;;
2866;SDS011;1441;48.886;8.728;2023-10-13T00:40:37;7.10;;;3.93;;
2866;SDS011;1441;48.886;8.728;2023-10-13T00:43:04;12.47;;;3.90;;
2866;SDS011;1441;48.886;8.728;2023-10-13T00:48:20;5.90;;;4.00;;
2866;SDS011;1441;48.886;8.728;2023-10-13T00:50:49;6.80;;;4.50;;
2866;SDS011;1441;48.886;8.728;2023-10-13T00:53:15;6.93;;;4.13;;
2866;SDS011;1441;48.886;8.728;2023-10-13T00:55:41;6.37;;;4.00;;
2866;SDS011;1441;48.886;8.728;2023-10-13T00:58:06;7.27;;;4.00;;
2866;SDS011;1441;48.886;8.728;2023-10-13T01:00:36;9.97;;;3.80;;
2866;SDS011;1441;48.886;8.728;2023-10-13T01:03:12;7.60;;;4.40;;
2866;SDS011;1441;48.886;8.728;2023-10-13T01:05:38;8.23;;;4.30;;
2866;SDS011;1441;48.886;8.728;2023-10-13T01:08:05;12.03;;;4.40;;
2866;SDS011;1441;48.886;8.728;2023-10-13T01:10:35;6.67;;;4.10;;
2866;SDS011;1441;48.886;8.728;2023-10-13T01:13:03;7.23;;;3.53;;
2866;SDS011;1441;48.886;8.728;2023-10-13T01:15:29;10.50;;;3.33;;
2866;SDS011;1441;48.886;8.728;2023-10-13T01:18:07;10.90;;;4.30;;
2866;SDS011;1441;48.886;8.728;2023-10-13T01:20:39;7.83;;;3.47;;
2866;SDS011;1441;48.886;8.728;2023-10-13T01:23:12;4.23;;;3.67;;
2866;SDS011;1441;48.886;8.728;2023-10-13T01:25:44;6.57;;;3.67;;
2866;SDS011;1441;48.886;8.728;2023-10-13T01:28:11;12.97;;;4.60;;
2866;SDS011;1441;48.886;8.728;2023-10-13T01:30:41;6.93;;;3.50;;
2866;SDS011;1441;48.886;8.728;2023-10-13T01:33:07;8.70;;;3.77;;
2866;SDS011;1441;48.886;8.728;2023-10-13T01:35:35;13.93;;;4.60;;
2866;SDS011;1441;48.886;8.728;2023-10-13T01:38:07;4.90;;;3.80;;
2866;SDS011;1441;48.886;8.728;2023-10-13T01:40:33;9.33;;;4.00;;
2866;SDS011;1441;48.886;8.728;2023-10-13T01:42:59;6.57;;;3.60;;
2866;SDS011;1441;48.886;8.728;2023-10-13T01:45:25;11.57;;;3.90;;
2866;SDS011;1441;48.886;8.728;2023-10-13T01:47:54;7.60;;;3.90;;
2866;SDS011;1441;48.886;8.728;2023-10-13T01:50:20;12.87;;;3.90;;
2866;SDS011;1441;48.886;8.728;2023-10-13T01:52:53;6.53;;;2.97;;
2866;SDS011;1441;48.886;8.728;2023-10-13T01:55:38;4.57;;;3.70;;
2866;SDS011;1441;48.886;8.728;2023-10-13T01:58:07;6.10;;;3.57;;
2866;SDS011;1441;48.886;8.728;2023-10-13T02:00:43;8.97;;;4.23;;
2866;SDS011;1441;48.886;8.728;2023-10-13T02:03:10;7.47;;;4.23;;
2866;SDS011;1441;48.886;8.728;2023-10-13T02:05:47;11.50;;;4.60;;
2866;SDS011;1441;48.886;8.728;2023-10-13T02:08:14;5.53;;;3.33;;
2866;SDS011;1441;48.886;8.728;2023-10-13T02:10:53;8.30;;;4.03;;
2866;SDS011;1441;48.886;8.728;2023-10-13T02:13:20;8.27;;;3.60;;
2866;SDS011;1441;48.886;8.728;2023-10-13T02:15:47;6.17;;;4.10;;
2866;SDS011;1441;48.886;8.728;2023-10-13T02:18:14;7.07;;;3.60;;
2866;SDS011;1441;48.886;8.728;2023-10-13T02:20:56;9.53;;;4.80;;
2866;SDS011;1441;48.886;8.728;2023-10-13T02:23:29;11.20;;;4.37;;
2866;SDS011;1441;48.886;8.728;2023-10-13T02:25:56;10.63;;;4.40;;
2866;SDS011;1441;48.886;8.728;2023-10-13T02:28:39;9.37;;;3.90;;
2866;SDS011;1441;48.886;8.728;2023-10-13T02:31:05;4.90;;;3.20;;
2866;SDS011;1441;48.886;8.728;2023-10-13T02:33:32;15.20;;;4.00;;
2866;SDS011;1441;48.886;8.728;2023-10-13T02:36:03;6.77;;;3.23;;
2866;SDS011;1441;48.886;8.728;2023-10-13T02:38:32;11.00;;;3.60;;
2866;SDS011;1441;48.886;8.728;2023-10-13T02:40:57;8.17;;;3.90;;
2866;SDS011;1441;48.886;8.728;2023-10-13T02:43:30;10.43;;;3.53;;
2866;SDS011;1441;48.886;8.728;2023-10-13T02:45:58;5.63;;;3.67;;
2866;SDS011;1441;48.886;8.728;2023-10-13T02:48:27;9.77;;;3.90;;
2866;SDS011;1441;48.886;8.728;2023-10-13T02:51:06;8.83;;;3.77;;
2866;SDS011;1441;48.886;8.728;2023-10-13T02:53:43;9.90;;;3.97;;
2866;SDS011;1441;48.886;8.728;2023-10-13T02:56:14;11.73;;;3.87;;
2866;SDS011;1441;48.886;8.728;2023-10-13T02:58:45;7.23;;;3.40;;
2866;SDS011;1441;48.886;8.728;2023-10-13T03:01:18;9.13;;;3.63;;
2866;SDS011;1441;48.886;8.728;2023-10-13T03:03:48;15.20;;;3.67;;
2866;SDS011;1441;48.886;8.728;2023-10-13T03:06:17;6.73;;;3.90;;
2866;SDS011;1441;48.886;8.728;2023-10-13T03:08:46;5.40;;;3.20;;
2866;SDS011;1441;48.886;8.728;2023-10-13T03:11:12;8.63;;;3.73;;
2866;SDS011;1441;48.886;8.728;2023-10-13T03:13:39;7.33;;;3.40;;
2866;SDS011;1441;48.886;8.728;2023-10-13T03:16:15;11.63;;;4.43;;
2866;SDS011;1441;48.886;8.728;2023-10-13T03:18:48;9.77;;;4.90;;
2866;SDS011;1441;48.886;8.728;2023-10-13T03:21:21;7.03;;;5.00;;
2866;SDS011;1441;48.886;8.728;2023-10-13T03:23:58;9.90;;;5.33;;
2866;SDS011;1441;48.886;8.728;2023-10-13T03:26:30;8.90;;;4.83;;
2866;SDS011;1441;48.886;8.728;2023-10-13T03:29:09;7.93;;;5.53;;
2866;SDS011;1441;48.886;8.728;2023-10-13T03:31:38;8.63;;;4.40;;
2866;SDS011;1441;48.886;8.728;2023-10-13T03:34:05;11.87;;;4.07;;
2866;SDS011;1441;48.886;8.728;2023-10-13T03:36:34;7.10;;;4.50;;
2866;SDS011;1441;48.886;8.728;2023-10-13T03:39:19;10.57;;;4.10;;
2866;SDS011;1441;48.886;8.728;2023-10-13T03:41:47;9.87;;;4.40;;
2866;SDS011;1441;48.886;8.728;2023-10-13T03:44:18;13.13;;;5.30;;
2866;SDS011;1441;48.886;8.728;2023-10-13T03:46:45;7.33;;;3.40;;
2866;SDS011;1441;48.886;8.728;2023-10-13T03:49:15;5.80;;;4.30;;
2866;SDS011;1441;48.886;8.728;2023-10-13T03:51:46;8.57;;;4.13;;
2866;SDS011;1441;48.886;8.728;2023-10-13T03:54:15;9.90;;;4.70;;
2866;SDS011;1441;48.886;8.728;2023-10-13T03:56:42;7.33;;;3.63;;
2866;SDS011;1441;48.886;8.728;2023-10-13T03:59:09;8.33;;;3.80;;
2866;SDS011;1441;48.886;8.728;2023-10-13T04:01:43;8.27;;;5.23;;
2866;SDS011;1441;48.886;8.728;2023-10-13T04:04:24;7.37;;;4.80;;
2866;SDS011;1441;48.886;8.728;2023-10-13T04:07:00;12.60;;;4.90;;
2866;SDS011;1441;48.886;8.728;2023-10-13T04:09:38;6.30;;;5.37;;
2866;SDS011;1441;48.886;8.728;2023-10-13T04:12:05;14.90;;;3.77;;
2866;SDS011;1441;48.886;8.728;2023-10-13T04:14:41;8.10;;;3.00;;
2866;SDS011;1441;48.886;8.728;2023-10-13T04:17:20;5.20;;;3.60;;
2866;SDS011;1441;48.886;8.728;2023-10-13T04:19:51;7.00;;;3.60;;
2866;SDS011;1441;48.886;8.728;2023-10-13T04:22:38;9.20;;;3.53;;
2866;SDS011;1441;48.886;8.728;2023-10-13T04:28:00;11.03;;;4.37;;
2866;SDS011;1441;48.886;8.728;2023-10-13T04:30:36;4.93;;;3.50;;
2866;SDS011;1441;48.886;8.728;2023-10-13T04:33:17;17.10;;;4.00;;
2866;SDS011;1441;48.886;8.728;2023-10-13T04:36:09;12.53;;;3.97;;
2866;SDS011;1441;48.886;8.728;2023-10-13T04:38:39;7.17;;;3.60;;
2866;SDS011;1441;48.886;8.728;2023-10-13T04:41:24;8.50;;;3.90;;
2866;SDS011;1441;48.886;8.728;2023-10-13T04:43:57;11.13;;;3.70;;
2866;SDS011;1441;48.886;8.728;2023-10-13T04:46:30;4.43;;;3.37;;
2866;SDS011;1441;48.886;8.728;2023-10-13T04:49:11;3.33;;;3.03;;
2866;SDS011;1441;48.886;8.728;2023-10-13T04:51:55;6.93;;;3.40;;
2866;SDS011;1441;48.886;8.728;2023-10-13T04:54:26;5.47;;;4.40;;
2866;SDS011;1441;48.886;8.728;2023-10-13T04:56:59;5.00;;;3.13;;
2866;SDS011;1441;48.886;8.728;2023-10-13T04:59:48;6.67;;;3.27;;
2866;SDS011;1441;48.886;8.728;2023-10-13T05:02:23;9.80;;;3.50;;
2866;SDS011;1441;48.886;8.728;2023-10-13T05:07:40;11.00;;;4.00;;
2866;SDS011;1441;48.886;8.728;2023-10-13T05:10:25;5.70;;;3.90;;
2866;SDS011;1441;48.886;8.728;2023-10-13T05:13:09;8.20;;;3.20;;
2866;SDS011;1441;48.886;8.728;2023-10-13T05:15:54;5.10;;;3.87;;
2866;SDS011;1441;48.886;8.728;2023-10-13T05:18:39;8.13;;;3.83;;
2866;SDS011;1441;48.886;8.728;2023-10-13T05:21:22;5.13;;;3.70;;
2866;SDS011;1441;48.886;8.728;2023-10-13T05:24:07;7.33;;;3.83;;
2866;SDS011;1441;48.886;8.728;2023-10-13T05:26:52;8.13;;;4.10;;
2866;SDS011;1441;48.886;8.728;2023-10-13T05:29:40;6.40;;;4.07;;
2866;SDS011;1441;48.886;8.728;2023-10-13T05:32:25;9.17;;;3.50;;
2866;SDS011;1441;48.886;8.728;2023-10-13T05:35:10;21.13;;;4.67;;
2866;SDS011;1441;48.886;8.728;2023-10-13T05:37:55;7.30;;;4.23;;
2866;SDS011;1441;48.886;8.728;2023-10-13T05:40:39;7.40;;;3.60;;
2866;SDS011;1441;48.886;8.728;2023-10-13T05:43:23;8.60;;;4.00;;
2866;SDS011;1441;48.886;8.728;2023-10-13T05:46:07;6.50;;;3.70;;
2866;SDS011;1441;48.886;8.728;2023-10-13T05:48:54;7.60;;;3.97;;
2866;SDS011;1441;48.886;8.728;2023-10-13T05:53:58;7.00;;;3.50;;
2866;SDS011;1441;48.886;8.728;2023-10-13T05:59:28;5.70;;;3.43;;
2866;SDS011;1441;48.886;8.728;2023-10-13T06:02:14;6.03;;;3.63;;
2866;SDS011;1441;48.886;8.728;2023-10-13T06:05:01;13.77;;;4.10;;
2866;SDS011;1441;48.886;8.728;2023-10-13T06:07:49;10.40;;;3.83;;
2866;SDS011;1441;48.886;8.728;2023-10-13T06:10:33;13.27;;;3.60;;
2866;SDS011;1441;48.886;8.728;2023-10-13T06:13:17;9.23;;;3.63;;
2866;SDS011;1441;48.886;8.728;2023-10-13T06:16:08;6.77;;;3.33;;
2866;SDS011;1441;48.886;8.728;2023-10-13T06:18:57;11.33;;;3.50;;
2866;SDS011;1441;48.886;8.728;2023-10-13T06:21:42;9.23;;;3.60;;
2866;SDS011;1441;48.886;8.728;2023-10-13T06:24:26;9.87;;;3.90;;
2866;SDS011;1441;48.886;8.728;2023-10-13T06:27:11;4.60;;;3.40;;
2866;SDS011;1441;48.886;8.728;2023-10-13T06:29:55;9.63;;;3.97;;
2866;SDS011;1441;48.886;8.728;2023-10-13T06:32:21;8.00;;;4.17;;
2866;SDS011;1441;48.886;8.728;2023-10-13T06:34:52;8.27;;;4.20;;
2866;SDS011;1441;48.886;8.728;2023-10-13T06:37:23;7.07;;;3.43;;
2866;SDS011;1441;48.886;8.728;2023-10-13T06:39:59;9.67;;;4.53;;
2866;SDS011;1441;48.886;8.728;2023-10-13T06:42:47;9.67;;;3.80;;
2866;SDS011;1441;48.886;8.728;2023-10-13T06:45:16;7.23;;;3.23;;
2866;SDS011;1441;48.886;8.728;2023-10-13T06:47:43;5.23;;;3.67;;
2866;SDS011;1441;48.886;8.728;2023-10-13T06:50:12;7.87;;;3.27;;
2866;SDS011;1441;48.886;8.728;2023-10-13T06:52:41;5.83;;;3.20;;
2866;SDS011;1441;48.886;8.728;2023-10-13T06:55:09;4.13;;;3.37;;
2866;SDS011;1441;48.886;8.728;2023-10-13T06:57:49;9.60;;;4.20;;
2866;SDS011;1441;48.886;8.728;2023-10-13T07:00:16;6.40;;;3.63;;
2866;SDS011;1441;48.886;8.728;2023-10-13T07:02:52;5.40;;;3.00;;
2866;SDS011;1441;48.886;8.728;2023-10-13T07:05:18;7.03;;;3.60;;
2866;SDS011;1441;48.886;8.728;2023-10-13T07:07:44;4.43;;;3.50;;
2866;SDS011;1441;48.886;8.728;2023-10-13T07:10:10;7.83;;;3.50;;
2866;SDS011;1441;48.886;8.728;2023-10-13T07:12:37;10.83;;;3.37;;
2866;SDS011;1441;48.886;8.728;2023-10-13T07:15:08;6.83;;;2.63;;
2866;SDS011;1441;48.886;8.728;2023-10-13T07:17:37;7.10;;;3.10;;
2866;SDS011;1441;48.886;8.728;2023-10-13T07:20:05;8.07;;;3.13;;
2866;SDS011;1441;48.886;8.728;2023-10-13T07:22:40;8.90;;;3.20;;
2866;SDS011;1441;48.886;8.728;2023-10-13T07:25:19;9.50;;;4.60;;
2866;SDS011;1441;48.886;8.728;2023-10-13T07:27:49;7.80;;;3.07;;
2866;SDS011;1441;48.886;8.728;2023-10-13T07:30:14;6.77;;;3.50;;
2866;SDS011;1441;48.886;8.728;2023-10-13T07:32:44;7.90;;;3.23;;
2866;SDS011;1441;48.886;8.728;2023-10-13T07:35:11;5.50;;;2.87;;
2866;SDS011;1441;48.886;8.728;2023-10-13T07:37:37;4.73;;;3.27;;
2866;SDS011;1441;48.886;8.728;2023-10-13T07:40:06;9.07;;;3.20;;
2866;SDS011;1441;48.886;8.728;2023-10-13T07:42:47;4.00;;;2.67;;
2866;SDS011;1441;48.886;8.728;2023-10-13T07:45:12;15.27;;;3.30;;
2866;SDS011;1441;48.886;8.728;2023-10-13T07:47:38;6.67;;;2.90;;
2866;SDS011;1441;48.886;8.728;2023-10-13T07:50:04;3.10;;;2.73;;
2866;SDS011;1441;48.886;8.728;2023-10-13T07:52:31;5.20;;;2.73;;
2866;SDS011;1441;48.886;8.728;2023-10-13T07:55:19;3.67;;;2.67;;
2866;SDS011;1441;48.886;8.728;2023-10-13T07:57:46;7.33;;;3.00;;
2866;SDS011;1441;48.886;8.728;2023-10-13T08:00:22;11.00;;;2.80;;
2866;SDS011;1441;48.886;8.728;2023-10-13T08:02:58;4.93;;;3.10;;
2866;SDS011;1441;48.886;8.728;2023-10-13T08:05:34;8.60;;;3.73;;
2866;SDS011;1441;48.886;8.728;2023-10-13T08:08:18;9.77;;;2.43;;
2866;SDS011;1441;48.886;8.728;2023-10-13T08:10:44;5.23;;;3.30;;
2866;SDS011;1441;48.886;8.728;2023-10-13T08:13:10;8.30;;;2.83;;
2866;SDS011;1441;48.886;8.728;2023-10-13T08:15:40;5.73;;;3.87;;
2866;SDS011;1441;48.886;8.728;2023-10-13T08:18:12;7.53;;;3.30;;
2866;SDS011;1441;48.886;8.728;2023-10-13T08:20:55;7.87;;;2.90;;
2866;SDS011;1441;48.886;8.728;2023-10-13T08:23:28;4.37;;;3.00;;
2866;SDS011;1441;48.886;8.728;2023-10-13T08:26:24;11.43;;;3.80;;
2866;SDS011;1441;48.886;8.728;2023-10-13T08:28:58;5.47;;;3.37;;
2866;SDS011;1441;48.886;8.728;2023-10-13T08:31:50;6.03;;;3.87;;
2866;SDS011;1441;48.886;8.728;2023-10-13T08:34:35;11.63;;;4.00;;
2866;SDS011;1441;48.886;8.728;2023-10-13T08:37:24;3.57;;;3.23;;
2866;SDS011;1441;48.886;8.728;2023-10-13T08:39:58;7.43;;;3.77;;
2866;SDS011;1441;48.886;8.728;2023-10-13T08:42:34;7.53;;;5.30;;
2866;SDS011;1441;48.886;8.728;2023-10-13T08:45:15;9.63;;;3.77;;
2866;SDS011;1441;48.886;8.728;2023-10-13T08:47:54;8.03;;;3.57;;
2866;SDS011;1441;48.886;8.728;2023-10-13T08:50:47;8.67;;;3.97;;
2866;SDS011;1441;48.886;8.728;2023-10-13T08:56:08;8.83;;;3.53;;
2866;SDS011;1441;48.886;8.728;2023-10-13T08:58:53;6.40;;;3.43;;
2866;SDS011;1441;48.886;8.728;2023-10-13T09:01:19;4.00;;;3.47;;
2866;SDS011;1441;48.886;8.728;2023-10-13T09:03:58;6.40;;;3.63;;
2866;SDS011;1441;48.886;8.728;2023-10-13T09:06:43;5.87;;;3.50;;
2866;SDS011;1441;48.886;8.728;2023-10-13T09:09:12;4.17;;;2.87;;
2866;SDS011;1441;48.886;8.728;2023-10-13T09:11:51;8.30;;;3.87;;
2866;SDS011;1441;48.886;8.728;2023-10-13T09:14:36;7.10;;;3.33;;
2866;SDS011;1441;48.886;8.728;2023-10-13T09:17:07;10.43;;;3.80;;
2866;SDS011;1441;48.886;8.728;2023-10-13T09:19:46;34.70;;;3.90;;
2866;SDS011;1441;48.886;8.728;2023-10-13T09:22:24;6.10;;;3.20;;
2866;SDS011;1441;48.886;8.728;2023-10-13T09:25:00;9.27;;;3.20;;
2866;SDS011;1441;48.886;8.728;2023-10-13T09:27:31;6.13;;;3.10;;
2866;SDS011;1441;48.886;8.728;2023-10-13T09:30:03;9.60;;;3.60;;
2866;SDS011;1441;48.886;8.728;2023-10-13T09:32:43;10.60;;;3.80;;
2866;SDS011;1441;48.886;8.728;2023-10-13T09:35:19;12.27;;;3.67;;
2866;SDS011;1441;48.886;8.728;2023-10-13T09:37:48;6.70;;;3.27;;
2866;SDS011;1441;48.886;8.728;2023-10-13T09:40:17;4.03;;;3.10;;
2866;SDS011;1441;48.886;8.728;2023-10-13T09:42:52;14.70;;;3.80;;
2866;SDS011;1441;48.886;8.728;2023-10-13T09:45:28;16.63;;;3.70;;
2866;SDS011;1441;48.886;8.728;2023-10-13T09:48:00;9.20;;;3.10;;
2866;SDS011;1441;48.886;8.728;2023-10-13T09:50:31;10.07;;;3.50;;
2866;SDS011;1441;48.886;8.728;2023-10-13T09:53:05;7.43;;;3.30;;
2866;SDS011;1441;48.886;8.728;2023-10-13T09:55:36;6.60;;;3.00;;
2866;SDS011;1441;48.886;8.728;2023-10-13T09:58:06;9.87;;;2.97;;
2866;SDS011;1441;48.886;8.728;2023-10-13T10:00:46;9.00;;;3.30;;
2866;SDS011;1441;48.886;8.728;2023-10-13T10:03:32;10.40;;;2.83;;
2866;SDS011;1441;48.886;8.728;2023-10-13T10:06:08;5.60;;;3.40;;
2866;SDS011;1441;48.886;8.728;2023-10-13T10:08:43;4.37;;;2.57;;
2866;SDS011;1441;48.886;8.728;2023-10-13T10:11:23;5.30;;;3.00;;
2866;SDS011;1441;48.886;8.728;2023-10-13T10:17:04;9.97;;;2.60;;
2866;SDS011;1441;48.886;8.728;2023-10-13T10:19:27;3.73;;;2.70;;
2866;SDS011;1441;48.886;8.728;2023-10-13T10:22:03;5.93;;;3.20;;
2866;SDS011;1441;48.886;8.728;2023-10-13T10:24:55;6.83;;;2.83;;
2866;SDS011;1441;48.886;8.728;2023-10-13T10:27:27;6.40;;;2.50;;
2866;SDS011;1441;48.886;8.728;2023-10-13T10:29:57;2.53;;;2.23;;
2866;SDS011;1441;48.886;8.728;2023-10-13T10:32:33;5.90;;;2.93;;
2866;SDS011;1441;48.886;8.728;2023-10-13T10:35:02;4.73;;;2.27;;
2866;SDS011;1441;48.886;8.728;2023-10-13T10:37:34;4.07;;;2.10;;
2866;SDS011;1441;48.886;8.728;2023-10-13T10:40:01;4.50;;;2.30;;
2866;SDS011;1441;48.886;8.728;2023-10-13T10:42:32;5.60;;;2.67;;
2866;SDS011;1441;48.886;8.728;2023-10-13T10:44:59;3.63;;;2.37;;
2866;SDS011;1441;48.886;8.728;2023-10-13T10:47:33;5.07;;;2.80;;
2866;SDS011;1441;48.886;8.728;2023-10-13T10:50:03;5.80;;;2.70;;
2866;SDS011;1441;48.886;8.728;2023-10-13T10:52:44;6.37;;;2.50;;
2866;SDS011;1441;48.886;8.728;2023-10-13T10:55:09;6.13;;;2.70;;
2866;SDS011;1441;48.886;8.728;2023-10-13T10:57:40;6.73;;;2.13;;
2866;SDS011;1441;48.886;8.728;2023-10-13T11:00:17;7.90;;;2.70;;
2866;SDS011;1441;48.886;8.728;2023-10-13T11:02:53;3.77;;;2.33;;
2866;SDS011;1441;48.886;8.728;2023-10-13T11:05:22;6.03;;;3.27;;
2866;SDS011;1441;48.886;8.728;2023-10-13T11:07:57;14.30;;;3.63;;
2866;SDS011;1441;48.886;8.728;2023-10-13T11:10:23;19.87;;;3.17;;
2866;SDS011;1441;48.886;8.728;2023-10-13T11:12:56;10.73;;;2.70;;
2866;SDS011;1441;48.886;8.728;2023-10-13T11:15:44;6.10;;;2.50;;
2866;SDS011;1441;48.886;8.728;2023-10-13T11:18:10;8.70;;;2.80;;
2866;SDS011;1441;48.886;8.728;2023-10-13T11:20:42;6.53;;;2.87;;
2866;SDS011;1441;48.886;8.728;2023-10-13T11:23:11;5.03;;;2.10;;
2866;SDS011;1441;48.886;8.728;2023-10-13T11:25:37;3.47;;;2.67;;
2866;SDS011;1441;48.886;8.728;2023-10-13T11:28:13;9.10;;;2.47;;
2866;SDS011;1441;48.886;8.728;2023-10-13T11:30:52;7.00;;;2.20;;
2866;SDS011;1441;48.886;8.728;2023-10-13T11:33:23;5.73;;;2.10;;
2866;SDS011;1441;48.886;8.728;2023-10-13T11:35:51;11.93;;;2.50;;
2866;SDS011;1441;48.886;8.728;2023-10-13T11:38:26;16.83;;;2.90;;
2866;SDS011;1441;48.886;8.728;2023-10-13T11:40:59;12.53;;;2.93;;
2866;SDS011;1441;48.886;8.728;2023-10-13T11:43:36;9.87;;;3.27;;
2866;SDS011;1441;48.886;8.728;2023-10-13T11:46:12;8.93;;;2.80;;
2866;SDS011;1441;48.886;8.728;2023-10-13T11:48:40;18.77;;;2.90;;
2866;SDS011;1441;48.886;8.728;2023-10-13T11:51:11;9.43;;;2.83;;
2866;SDS011;1441;48.886;8.728;2023-10-13T11:53:51;23.03;;;3.30;;
2866;SDS011;1441;48.886;8.728;2023-10-13T11:56:20;15.20;;;2.40;;
2866;SDS011;1441;48.886;8.728;2023-10-13T11:58:46;11.93;;;3.33;;
2866;SDS011;1441;48.886;8.728;2023-10-13T12:01:13;7.60;;;2.07;;
2866;SDS011;1441;48.886;8.728;2023-10-13T12:03:41;6.63;;;3.00;;
2866;SDS011;1441;48.886;8.728;2023-10-13T12:06:27;17.77;;;3.30;;
2866;SDS011;1441;48.886;8.728;2023-10-13T12:11:44;19.13;;;2.87;;
2866;SDS011;1441;48.886;8.728;2023-10-13T12:14:15;13.37;;;2.70;;
2866;SDS011;1441;48.886;8.728;2023-10-13T12:16:54;8.30;;;2.40;;
2866;SDS011;1441;48.886;8.728;2023-10-13T12:19:21;12.47;;;3.00;;
2866;SDS011;1441;48.886;8.728;2023-10-13T12:21:53;15.07;;;3.07;;
2866;SDS011;1441;48.886;8.728;2023-10-13T12:24:27;4.20;;;2.63;;
2866;SDS011;1441;48.886;8.728;2023-10-13T12:27:15;14.63;;;3.40;;
2866;SDS011;1441;48.886;8.728;2023-10-13T12:29:50;8.17;;;2.67;;
2866;SDS011;1441;48.886;8.728;2023-10-13T12:32:17;6.13;;;2.37;;
2866;SDS011;1441;48.886;8.728;2023-10-13T12:34:55;6.90;;;2.80;;
2866;SDS011;1441;48.886;8.728;2023-10-13T12:37:25;10.17;;;2.70;;
2866;SDS011;1441;48.886;8.728;2023-10-13T12:42:52;8.13;;;2.87;;
2866;SDS011;1441;48.886;8.728;2023-10-13T12:45:40;6.40;;;2.57;;
2866;SDS011;1441;48.886;8.728;2023-10-13T12:48:28;13.23;;;2.63;;
2866;SDS011;1441;48.886;8.728;2023-10-13T12:51:13;12.03;;;3.10;;
2866;SDS011;1441;48.886;8.728;2023-10-13T12:53:56;10.47;;;2.97;;
2866;SDS011;1441;48.886;8.728;2023-10-13T12:56:39;4.63;;;2.50;;
2866;SDS011;1441;48.886;8.728;2023-10-13T12:59:08;7.30;;;2.70;;
2866;SDS011;1441;48.886;8.728;2023-10-13T13:01:38;8.07;;;2.93;;
2866;SDS011;1441;48.886;8.728;2023-10-13T13:04:07;13.97;;;2.93;;
2866;SDS011;1441;48.886;8.728;2023-10-13T13:06:37;7.87;;;2.80;;
2866;SDS011;1441;48.886;8.728;2023-10-13T13:09:05;24.53;;;3.57;;
2866;SDS011;1441;48.886;8.728;2023-10-13T13:11:34;22.20;;;3.20;;
2866;SDS011;1441;48.886;8.728;2023-10-13T13:14:04;29.53;;;4.97;;
2866;SDS011;1441;48.886;8.728;2023-10-13T13:16:43;22.43;;;4.40;;
2866;SDS011;1441;48.886;8.728;2023-10-13T13:19:13;6.63;;;2.57;;
2866;SDS011;1441;48.886;8.728;2023-10-13T13:21:39;9.90;;;2.63;;
2866;SDS011;1441;48.886;8.728;2023-10-13T13:24:05;5.50;;;2.37;;
2866;SDS011;1441;48.886;8.728;2023-10-13T13:26:35;8.93;;;3.03;;
2866;SDS011;1441;48.886;8.728;2023-10-13T13:29:05;7.60;;;3.33;;
2866;SDS011;1441;48.886;8.728;2023-10-13T13:31:34;9.13;;;2.93;;
2866;SDS011;1441;48.886;8.728;2023-10-13T13:34:05;8.63;;;2.67;;
2866;SDS011;1441;48.886;8.728;2023-10-13T13:36:34;9.50;;;2.93;;
2866;SDS011;1441;48.886;8.728;2023-10-13T13:39:00;9.70;;;3.30;;
2866;SDS011;1441;48.886;8.728;2023-10-13T13:41:25;23.67;;;3.20;;
2866;SDS011;1441;48.886;8.728;2023-10-13T13:43:51;5.57;;;2.53;;
2866;SDS011;1441;48.886;8.728;2023-10-13T13:46:24;18.30;;;2.67;;
2866;SDS011;1441;48.886;8.728;2023-10-13T13:48:52;7.40;;;2.27;;
2866;SDS011;1441;48.886;8.728;2023-10-13T13:51:26;8.37;;;2.83;;
2866;SDS011;1441;48.886;8.728;2023-10-13T13:53:53;32.97;;;4.53;;
2866;SDS011;1441;48.886;8.728;2023-10-13T13:56:22;14.43;;;3.33;;
2866;SDS011;1441;48.886;8.728;2023-10-13T13:58:52;9.20;;;2.60;;
2866;SDS011;1441;48.886;8.728;2023-10-13T14:01:19;16.90;;;2.90;;
2866;SDS011;1441;48.886;8.728;2023-10-13T14:03:50;4.63;;;2.00;;
2866;SDS011;1441;48.886;8.728;2023-10-13T14:06:17;15.33;;;2.90;;
2866;SDS011;1441;48.886;8.728;2023-10-13T14:08:48;4.80;;;2.43;;
2866;SDS011;1441;48.886;8.728;2023-10-13T14:11:14;13.20;;;2.57;;
2866;SDS011;1441;48.886;8.728;2023-10-13T14:13:48;11.77;;;3.10;;
2866;SDS011;1441;48.886;8.728;2023-10-13T14:16:17;6.03;;;2.00;;
2866;SDS011;1441;48.886;8.728;2023-10-13T14:18:44;10.13;;;2.50;;
2866;SDS011;1441;48.886;8.728;2023-10-13T14:21:11;9.30;;;2.27;;
2866;SDS011;1441;48.886;8.728;2023-10-13T14:23:45;15.37;;;3.23;;
2866;SDS011;1441;48.886;8.728;2023-10-13T14:26:12;15.90;;;3.70;;
2866;SDS011;1441;48.886;8.728;2023-10-13T14:28:46;8.87;;;2.53;;
2866;SDS011;1441;48.886;8.728;2023-10-13T14:31:28;6.10;;;2.40;;
2866;SDS011;1441;48.886;8.728;2023-10-13T14:33:54;9.23;;;2.60;;
2866;SDS011;1441;48.886;8.728;2023-10-13T14:36:20;3.70;;;2.50;;
2866;SDS011;1441;48.886;8.728;2023-10-13T14:38:46;4.93;;;2.30;;
2866;SDS011;1441;48.886;8.728;2023-10-13T14:41:15;7.03;;;2.53;;
2866;SDS011;1441;48.886;8.728;2023-10-13T14:43:44;6.77;;;2.20;;
2866;SDS011;1441;48.886;8.728;2023-10-13T14:46:19;15.13;;;2.70;;
2866;SDS011;1441;48.886;8.728;2023-10-13T14:48:48;2.10;;;1.80;;
2866;SDS011;1441;48.886;8.728;2023-10-13T14:51:17;8.53;;;2.67;;
2866;SDS011;1441;48.886;8.728;2023-10-13T14:53:43;8.03;;;2.13;;
2866;SDS011;1441;48.886;8.728;2023-10-13T14:56:12;13.87;;;2.40;;
2866;SDS011;1441;48.886;8.728;2023-10-13T14:58:39;12.63;;;3.00;;
2866;SDS011;1441;48.886;8.728;2023-10-13T15:01:11;11.90;;;2.90;;
2866;SDS011;1441;48.886;8.728;2023-10-13T15:03:36;11.00;;;2.70;;
2866;SDS011;1441;48.886;8.728;2023-10-13T15:06:03;7.13;;;2.87;;
2866;SDS011;1441;48.886;8.728;2023-10-13T15:08:28;5.40;;;1.90;;
2866;SDS011;1441;48.886;8.728;2023-10-13T15:10:54;4.07;;;2.00;;
2866;SDS011;1441;48.886;8.728;2023-10-13T15:13:19;5.50;;;2.20;;
2866;SDS011;1441;48.886;8.728;2023-10-13T15:15:47;7.40;;;2.77;;
2866;SDS011;1441;48.886;8.728;2023-10-13T15:18:13;10.90;;;2.87;;
2866;SDS011;1441;48.886;8.728;2023-10-13T15:20:39;3.60;;;2.10;;
2866;SDS011;1441;48.886;8.728;2023-10-13T15:23:08;10.60;;;2.10;;
2866;SDS011;1441;48.886;8.728;2023-10-13T15:25:39;8.10;;;2.30;;
2866;SDS011;1441;48.886;8.728;2023-10-13T15:28:14;9.27;;;2.73;;
2866;SDS011;1441;48.886;8.728;2023-10-13T15:30:45;6.10;;;2.60;;
2866;SDS011;1441;48.886;8.728;2023-10-13T15:33:21;19.50;;;3.07;;
2866;SDS011;1441;48.886;8.728;2023-10-13T15:35:48;3.73;;;2.43;;
2866;SDS011;1441;48.886;8.728;2023-10-13T15:38:13;4.53;;;2.33;;
2866;SDS011;1441;48.886;8.728;2023-10-13T15:40:42;8.53;;;2.10;;
2866;SDS011;1441;48.886;8.728;2023-10-13T15:43:08;6.20;;;1.90;;
2866;SDS011;1441;48.886;8.728;2023-10-13T15:45:34;10.27;;;2.30;;
2866;SDS011;1441;48.886;8.728;2023-10-13T15:48:08;4.73;;;1.97;;
2866;SDS011;1441;48.886;8.728;2023-10-13T15:50:36;21.07;;;3.10;;
2866;SDS011;1441;48.886;8.728;2023-10-13T15:53:05;5.13;;;2.00;;
2866;SDS011;1441;48.886;8.728;2023-10-13T15:55:34;7.10;;;2.20;;
2866;SDS011;1441;48.886;8.728;2023-10-13T15:58:01;5.23;;;2.10;;
2866;SDS011;1441;48.886;8.728;2023-10-13T16:00:27;5.27;;;2.23;;
2866;SDS011;1441;48.886;8.728;2023-10-13T16:02:55;2.63;;;2.33;;
2866;SDS011;1441;48.886;8.728;2023-10-13T16:05:22;5.53;;;2.20;;
2866;SDS011;1441;48.886;8.728;2023-10-13T16:07:50;4.63;;;2.20;;
2866;SDS011;1441;48.886;8.728;2023-10-13T16:10:17;8.50;;;2.17;;
2866;SDS011;1441;48.886;8.728;2023-10-13T16:12:46;2.87;;;2.60;;